Time;durP1;ratioP1;P1;durP2;ratioP2;P2;SDS_P1;SDS_P2;PMS_P1;PMS_P2;Temp;Humidity;BMP_temperature;BMP_pressure;BME280_temperature;BME280_humidity;BME280_pressure;Samples;Min_cycle;Max_cycle;Signal;HPM_P1;HPM_P2
2023/10/15 00:00:26;;;;;;;7.10;2.72;;;;;;;10.58;75.08;99659.45;1676796;85;25535;-63
2023/10/15 00:02:55;;;;;;;10.28;2.85;;;;;;;10.53;74.56;99665.05;1676905;85;25648;-62
2023/10/15 00:05:27;;;;;;;5.80;2.25;;;;;;;10.45;74.20;99652.59;1676807;85;25549;-62
2023/10/15 00:07:54;;;;;;;14.00;2.95;;;;;;;10.42;74.20;99657.82;1676796;85;27466;-63
2023/10/15 00:10:25;;;;;;;12.07;6.12;;;;;;;10.38;74.02;99649.56;1676705;85;25467;-63
2023/10/15 00:12:53;;;;;;;10.98;6.50;;;;;;;10.35;74.24;99654.83;1676845;85;25572;-63
2023/10/15 00:15:20;;;;;;;10.82;3.30;;;;;;;;;;1676756;85;26137;-58
2023/10/15 00:17:50;;;;;;;6.60;2.50;;;;;;;10.32;74.21;99669.80;1676777;85;25616;-57
2023/10/15 00:20:20;;;;;;;10.25;2.58;;;;;;;10.28;74.05;99665.56;1676725;85;27565;-65
2023/10/15 00:22:49;;;;;;;7.42;2.47;;;;;;;10.25;73.97;99662.72;1678176;83;28113;-66
2023/10/15 00:25:19;;;;;;;7.15;2.60;;;;;;;10.23;73.78;99667.63;1684741;85;25387;-61
2023/10/15 00:27:52;;;;;;;7.75;2.55;;;;;;;10.21;73.51;99663.11;1679829;85;25470;-60
2023/10/15 00:30:19;;;;;;;4.40;1.85;;;;;;;10.18;73.22;99652.94;1683707;84;25575;-61
2023/10/15 00:32:52;;;;;;;9.50;2.67;;;;;;;10.16;73.14;99657.30;1686801;85;28109;-60
2023/10/15 00:35:21;;;;;;;7.20;2.45;;;;;;;10.15;73.14;99661.68;1686621;84;25849;-60
2023/10/15 00:37:55;;;;;;;6.78;2.00;;;;;;;10.13;73.10;99666.08;1686731;85;25594;-61
2023/10/15 00:40:25;;;;;;;5.60;2.42;;;;;;;10.08;72.87;99663.55;1686739;85;25599;-60
2023/10/15 00:42:51;;;;;;;;;;;;;;;10.01;72.73;99659.98;1688985;83;25596;-61
2023/10/15 00:45:20;;;;;;;11.03;2.52;;;;;;;9.98;72.76;99672.77;1686744;85;27859;-61
2023/10/15 00:50:43;;;;;;;7.10;2.52;;;;;;;9.89;73.00;99671.97;1686742;84;25553;-60
2023/10/15 00:53:23;;;;;;;5.97;2.60;;;;;;;9.86;73.05;99677.47;1686700;85;25586;-62
2023/10/15 00:55:54;;;;;;;8.55;2.60;;;;;;;9.83;73.14;99685.42;1686785;85;25634;-61
2023/10/15 00:58:31;;;;;;;10.05;3.02;;;;;;;9.79;73.13;99681.21;1686774;85;27469;-61
2023/10/15 01:00:53;;;;;;;9.45;3.05;;;;;;;9.76;73.04;99687.24;1685545;85;25642;-61
2023/10/15 01:03:30;;;;;;;7.12;2.52;;;;;;;9.70;73.02;99681.22;1686804;83;25397;-61
2023/10/15 01:05:53;;;;;;;11.75;2.85;;;;;;;9.67;72.95;99677.80;1685673;85;26645;-60
2023/10/15 01:08:26;;;;;;;7.00;2.60;;;;;;;9.62;73.09;99677.95;1686722;85;25458;-61
2023/10/15 01:10:53;;;;;;;9.95;2.62;;;;;;;9.58;73.07;99677.55;1686253;85;28145;-61
2023/10/15 01:13:21;;;;;;;10.65;2.35;;;;;;;9.53;73.14;99672.55;1686301;82;25457;-61
2023/10/15 01:15:51;;;;;;;10.35;2.70;;;;;;;9.50;73.03;99676.41;1686691;84;25400;-60
2023/10/15 01:18:15;;;;;;;8.20;2.30;;;;;;;9.46;73.03;99684.35;1686511;85;25606;-61
2023/10/15 01:20:42;;;;;;;10.63;2.70;;;;;;;9.43;73.15;99688.24;1686723;83;25373;-61
2023/10/15 01:23:30;;;;;;;6.80;2.62;;;;;;;9.41;73.08;99685.86;1684816;84;27503;-61
2023/10/15 01:25:59;;;;;;;7.25;2.20;;;;;;;9.38;73.15;99686.51;1676517;85;25857;-61
2023/10/15 01:28:38;;;;;;;6.53;2.72;;;;;;;9.35;73.23;99683.09;1676687;85;25480;-61
2023/10/15 01:31:06;;;;;;;5.87;2.37;;;;;;;9.30;73.04;99675.92;1676708;85;26079;-61
2023/10/15 01:33:53;;;;;;;8.98;2.90;;;;;;;9.28;72.99;99681.39;1676614;85;25458;-61
2023/10/15 01:36:19;;;;;;;8.63;2.92;;;;;;;9.25;73.03;99684.73;1675549;85;27602;-61
2023/10/15 01:38:54;;;;;;;8.20;2.50;;;;;;;9.21;73.17;99687.80;1685336;85;25636;-60
2023/10/15 01:41:18;;;;;;;11.88;3.12;;;;;;;9.18;73.49;99685.20;1676662;84;25566;-60
2023/10/15 01:43:47;;;;;;;8.43;3.00;;;;;;;9.14;73.46;99683.69;1676542;85;26467;-61
2023/10/15 01:46:39;;;;;;;9.03;2.62;;;;;;;9.10;73.58;99685.97;1676878;85;25629;-60
2023/10/15 01:48:42;;;;;;;11.60;2.92;;;;;;;9.05;73.59;99679.37;1673660;85;27525;-60
2023/10/15 01:51:09;;;;;;;8.30;2.17;;;;;;;9.01;73.84;99685.12;1676749;85;25564;-59
2023/10/15 01:53:39;;;;;;;7.15;2.22;;;;;;;8.96;74.08;99683.39;1676796;85;25462;-60
2023/10/15 01:56:06;;;;;;;5.55;2.20;;;;;;;8.92;74.22;99686.45;1677042;85;25564;-60
2023/10/15 01:58:33;;;;;;;7.45;2.10;;;;;;;8.88;74.51;99694.38;1676933;85;25674;-60
2023/10/15 02:01:09;;;;;;;6.90;2.05;;;;;;;8.85;74.76;99681.52;1676812;85;27862;-60
2023/10/15 02:03:33;;;;;;;10.98;2.27;;;;;;;8.81;74.79;99677.86;1655738;85;25728;-60
2023/10/15 02:06:05;;;;;;;6.65;2.47;;;;;;;8.78;75.05;99675.25;1676816;85;25607;-61
2023/10/15 02:08:33;;;;;;;7.00;2.50;;;;;;;8.76;75.09;99682.05;1676810;85;26011;-61
2023/10/15 02:11:15;;;;;;;6.78;2.33;;;;;;;8.73;75.32;99673.22;1676837;85;25470;-60
2023/10/15 02:13:45;;;;;;;5.05;2.40;;;;;;;8.69;75.23;99679.80;1676786;85;27480;-62
2023/10/15 02:16:16;;;;;;;;;;;;;;;8.65;75.43;99676.67;1679224;85;25914;-62
2023/10/15 02:18:44;;;;;;;7.80;2.47;;;;;;;8.63;75.77;99676.20;1645939;87;25409;-62
2023/10/15 02:21:08;;;;;;;11.70;2.50;;;;;;;8.57;75.71;99693.86;1633847;87;25608;-60
2023/10/15 02:23:35;;;;;;;10.20;2.27;;;;;;;8.53;75.81;99688.03;1636970;86;25504;-61
2023/10/15 02:26:03;;;;;;;8.45;2.62;;;;;;;8.51;76.09;99687.02;1697080;84;28323;-60
2023/10/15 02:28:36;;;;;;;6.22;2.10;;;;;;;8.48;76.03;99690.86;1695221;84;25609;-60
2023/10/15 02:33:31;;;;;;;;;;;;;;;8.45;76.42;99687.47;1694345;84;25493;-58
2023/10/15 02:35:59;;;;;;;7.00;2.12;;;;;;;8.41;76.33;99685.35;1691891;84;25559;-60
2023/10/15 02:38:33;;;;;;;10.83;2.83;;;;;;;8.39;76.49;99682.17;1692101;84;27722;-60
2023/10/15 02:41:11;;;;;;;8.20;2.25;;;;;;;8.37;76.57;99686.27;1691401;83;25471;-59
2023/10/15 02:43:40;;;;;;;9.48;2.20;;;;;;;8.35;76.60;99685.79;1691844;84;25557;-60
2023/10/15 02:46:22;;;;;;;8.35;2.55;;;;;;;8.32;76.86;99691.23;1691662;84;26054;-60
2023/10/15 02:48:48;;;;;;;7.03;2.12;;;;;;;8.30;76.56;99696.69;1691808;83;25409;-59
2023/10/15 02:51:23;;;;;;;7.35;1.92;;;;;;;8.27;76.71;99694.05;1691838;84;27512;-60
2023/10/15 02:54:03;;;;;;;6.90;1.82;;;;;;;8.25;76.74;99689.52;1691472;83;25841;-61
2023/10/15 02:56:22;;;;;;;6.78;2.25;;;;;;;8.25;76.83;99680.09;1689904;84;25492;-59
2023/10/15 02:58:51;;;;;;;8.88;2.17;;;;;;;8.23;76.66;99689.05;1691960;84;25640;-60
2023/10/15 03:01:24;;;;;;;10.08;2.70;;;;;;;8.21;76.76;99689.34;1691851;84;25407;-59
2023/10/15 03:03:52;;;;;;;7.50;2.33;;;;;;;8.18;76.87;99683.22;1690607;83;28237;-57
2023/10/15 03:06:31;;;;;;;6.50;1.85;;;;;;;8.17;76.93;99680.30;1691735;84;25612;-60
2023/10/15 03:08:59;;;;;;;7.12;1.98;;;;;;;8.14;76.90;99687.64;1692066;84;29678;-59
2023/10/15 03:11:33;;;;;;;11.48;2.05;;;;;;;8.13;76.93;99695.47;1691790;84;25473;-59
2023/10/15 03:14:02;;;;;;;8.40;2.15;;;;;;;8.11;76.96;99694.20;1691908;84;25587;-59
2023/10/15 03:16:30;;;;;;;;;;;;;;;8.10;76.95;99687.21;1694336;84;27495;-60
2023/10/15 03:19:06;;;;;;;7.22;1.82;;;;;;;8.07;76.90;99687.29;1691762;84;25693;-60
2023/10/15 03:21:26;;;;;;;6.20;2.35;;;;;;;8.05;76.96;99694.86;1691366;83;25451;-59
2023/10/15 03:23:56;;;;;;;6.85;2.08;;;;;;;8.04;76.86;99694.63;1691619;83;25423;-61
2023/10/15 03:26:24;;;;;;;6.90;2.00;;;;;;;8.01;76.65;99706.80;1691849;84;25573;-60
2023/10/15 03:28:51;;;;;;;8.23;1.87;;;;;;;8.00;76.83;99699.84;1692075;84;28194;-60
2023/10/15 03:31:27;;;;;;;8.05;2.02;;;;;;;7.98;76.70;99701.23;1691740;84;25969;-59
2023/10/15 03:36:44;;;;;;;8.70;2.40;;;;;;;7.95;76.86;99700.48;1691816;84;26395;-60
2023/10/15 03:38:59;;;;;;;13.95;3.80;;;;;;;7.95;76.90;99704.53;1690902;84;25632;-60
2023/10/15 03:41:29;;;;;;;8.63;2.37;;;;;;;7.93;76.78;99707.52;1691843;84;27491;-60
2023/10/15 03:44:02;;;;;;;9.45;1.77;;;;;;;7.91;76.60;99700.86;1691711;84;25462;-61
2023/10/15 03:46:25;;;;;;;8.55;2.20;;;;;;;7.88;76.64;99698.22;1691166;83;25397;-59
2023/10/15 03:48:53;;;;;;;7.65;2.08;;;;;;;7.85;76.55;99706.93;1691795;84;26062;-61
2023/10/15 03:51:23;;;;;;;6.05;2.35;;;;;;;7.83;76.90;99706.41;1691833;84;25548;-61
2023/10/15 03:53:50;;;;;;;7.55;2.52;;;;;;;7.81;76.91;99710.75;1691853;84;28492;-60
2023/10/15 03:56:19;;;;;;;10.00;2.25;;;;;;;7.78;76.95;99711.38;1691758;84;25571;-60
2023/10/15 03:58:51;;;;;;;8.73;2.60;;;;;;;7.76;77.25;99712.77;1691940;84;25612;-60
2023/10/15 04:01:17;;;;;;;5.87;2.00;;;;;;;7.74;77.25;99714.98;1691673;84;25535;-60
2023/10/15 04:03:47;;;;;;;8.35;2.27;;;;;;;7.73;77.31;99716.07;1692013;84;25406;-60
2023/10/15 04:06:15;;;;;;;5.62;1.77;;;;;;;7.69;77.37;99714.53;1691985;84;27492;-60
2023/10/15 04:11:12;;;;;;;5.95;2.40;;;;;;;7.62;77.62;99712.26;1610740;88;25705;-60
2023/10/15 04:13:40;;;;;;;7.92;2.35;;;;;;;7.60;77.71;99713.67;1604544;87;26127;-61
2023/10/15 04:16:08;;;;;;;8.65;1.87;;;;;;;7.56;77.91;99710.80;1604286;89;25560;-60
2023/10/15 04:18:35;;;;;;;5.28;2.17;;;;;;;7.54;77.85;99713.53;1604291;89;27670;-60
2023/10/15 04:21:02;;;;;;;7.58;1.95;;;;;;;7.51;78.06;99711.44;1604222;89;25919;-60
2023/10/15 04:23:32;;;;;;;7.58;2.20;;;;;;;7.50;78.44;99716.59;1604235;89;25653;-59
2023/10/15 04:26:07;;;;;;;9.88;2.10;;;;;;;7.47;78.64;99710.72;1604116;87;25891;-60
2023/10/15 04:28:30;;;;;;;7.05;2.25;;;;;;;7.45;78.37;99712.11;1603554;89;25807;-60
2023/10/15 04:30:58;;;;;;;10.20;2.50;;;;;;;7.44;78.58;99719.92;1604280;89;27523;-60
2023/10/15 04:33:27;;;;;;;6.35;2.22;;;;;;;7.43;78.78;99716.44;1604198;89;25703;-58
2023/10/15 04:35:56;;;;;;;7.53;2.27;;;;;;;7.41;78.67;99715.95;1604087;89;25688;-60
2023/10/15 04:38:35;;;;;;;9.40;2.35;;;;;;;7.43;78.85;99717.78;1604277;89;25722;-60
2023/10/15 04:41:00;;;;;;;8.80;2.33;;;;;;;7.41;78.69;99713.26;1604058;89;25699;-60
2023/10/15 04:43:27;;;;;;;9.53;2.47;;;;;;;7.41;78.91;99711.13;1604238;89;27505;-60
2023/10/15 04:45:57;;;;;;;9.85;2.58;;;;;;;7.41;78.96;99709.78;1604189;89;25777;-60
2023/10/15 04:48:32;;;;;;;13.15;2.70;;;;;;;7.39;79.15;99715.98;1638837;84;25665;-60
2023/10/15 04:51:13;;;;;;;6.42;2.02;;;;;;;7.37;78.94;99713.63;1674450;85;25565;-60
2023/10/15 04:53:50;;;;;;;12.45;2.60;;;;;;;7.35;78.96;99715.02;1675714;85;25387;-59
2023/10/15 04:56:17;;;;;;;12.47;2.37;;;;;;;7.35;79.16;99705.59;1676626;85;27320;-60
2023/10/15 04:58:44;;;;;;;11.88;5.15;;;;;;;7.33;79.41;99705.89;1676553;85;25558;-59
2023/10/15 05:01:12;;;;;;;9.75;1.82;;;;;;;7.34;79.40;99701.30;1676600;85;25467;-61
2023/10/15 05:03:39;;;;;;;9.63;3.15;;;;;;;7.33;79.30;99703.20;1676542;85;25639;-61
2023/10/15 05:06:10;;;;;;;6.85;1.77;;;;;;;7.33;79.35;99697.03;1676688;85;25411;-60
2023/10/15 05:08:40;;;;;;;7.47;1.92;;;;;;;7.34;79.58;99698.61;1676614;85;27107;-61
2023/10/15 05:11:09;;;;;;;6.30;1.92;;;;;;;7.33;79.51;99700.52;1676725;85;25653;-61
2023/10/15 05:13:35;;;;;;;10.55;2.08;;;;;;;7.35;79.51;99698.31;1676723;85;32913;-61
2023/10/15 05:16:04;;;;;;;7.42;2.02;;;;;;;7.37;79.53;99699.36;1676578;85;25565;-62
2023/10/15 05:18:32;;;;;;;7.17;2.40;;;;;;;7.37;79.48;99700.17;1676605;85;25658;-61
2023/10/15 05:21:00;;;;;;;6.03;1.85;;;;;;;7.39;79.54;99702.01;1676609;85;27544;-61
2023/10/15 05:23:28;;;;;;;8.83;2.27;;;;;;;7.39;79.64;99703.88;1676622;85;25703;-61
2023/10/15 05:25:56;;;;;;;7.05;2.00;;;;;;;7.39;79.64;99706.05;1684512;84;25463;-61
2023/10/15 05:28:23;;;;;;;7.75;2.20;;;;;;;7.39;79.76;99710.61;1686635;85;25952;-61
2023/10/15 05:30:50;;;;;;;5.70;2.00;;;;;;;7.40;79.54;99713.56;1686721;85;25410;-62
2023/10/15 05:33:16;;;;;;;9.00;1.77;;;;;;;7.41;79.79;99713.82;1686668;85;28073;-61
2023/10/15 05:35:47;;;;;;;8.33;1.70;;;;;;;7.42;79.69;99723.47;1686582;85;25929;-61
2023/10/15 05:38:16;;;;;;;10.18;2.22;;;;;;;7.42;79.72;99731.01;1686671;85;25419;-61
2023/10/15 05:40:44;;;;;;;;;;;;;;;7.44;79.70;99741.44;1689147;85;25582;-61
2023/10/15 05:43:11;;;;;;;11.33;3.62;;;;;;;7.46;79.94;99742.75;1686697;85;25559;-60
2023/10/15 05:45:39;;;;;;;4.03;1.98;;;;;;;7.46;79.88;99744.66;1686670;85;28245;-61
2023/10/15 05:48:07;;;;;;;13.30;2.30;;;;;;;7.48;79.96;99741.11;1686595;85;25779;-61
2023/10/15 05:50:34;;;;;;;9.13;2.45;;;;;;;7.51;79.90;99750.45;1686673;85;25578;-61
2023/10/15 05:53:00;;;;;;;6.92;2.33;;;;;;;7.52;79.92;99749.37;1686728;85;25521;-61
2023/10/15 05:55:29;;;;;;;8.23;1.98;;;;;;;7.56;79.92;99759.77;1686691;85;25639;-61
2023/10/15 05:57:58;;;;;;;6.87;2.37;;;;;;;7.58;80.17;99756.25;1686672;82;27502;-61
2023/10/15 06:00:27;;;;;;;8.73;2.15;;;;;;;7.59;80.08;99762.66;1686782;85;25633;-61
2023/10/15 06:02:56;;;;;;;9.13;2.50;;;;;;;7.61;80.16;99760.48;1686738;85;25393;-61
2023/10/15 06:05:23;;;;;;;9.93;3.08;;;;;;;7.64;80.20;99748.30;1686743;85;25457;-61
2023/10/15 06:07:54;;;;;;;8.70;2.22;;;;;;;7.69;80.22;99769.72;1686706;85;25598;-61
2023/10/15 06:10:40;;;;;;;7.97;2.75;;;;;;;7.72;80.11;99769.12;1674810;85;25810;-61
2023/10/15 06:13:06;;;;;;;10.05;2.60;;;;;;;7.76;80.19;99767.41;1684918;85;25412;-61
2023/10/15 06:15:33;;;;;;;4.30;2.12;;;;;;;7.81;80.22;99767.86;1684946;85;25476;-61
2023/10/15 06:18:00;;;;;;;4.78;1.85;;;;;;;7.84;80.06;99767.25;1684894;85;26096;-60
2023/10/15 06:20:26;;;;;;;7.37;2.22;;;;;;;7.89;80.05;99761.75;1684921;85;25477;-61
2023/10/15 06:22:56;;;;;;;9.20;2.33;;;;;;;7.97;80.07;99765.08;1684893;85;27459;-59
2023/10/15 06:25:23;;;;;;;10.53;2.40;;;;;;;8.08;80.13;99770.23;1684362;85;25610;-62
2023/10/15 06:27:51;;;;;;;5.93;1.80;;;;;;;8.19;80.02;99764.86;1685180;85;25592;-61
2023/10/15 06:30:19;;;;;;;9.75;1.80;;;;;;;8.42;80.22;99783.16;1684862;85;25516;-60
2023/10/15 06:32:48;;;;;;;8.75;2.15;;;;;;;8.48;79.88;99752.33;1684919;85;25640;-59
2023/10/15 06:35:19;;;;;;;6.70;2.17;;;;;;;8.67;80.17;99762.89;1685147;85;27062;-61
2023/10/15 06:37:47;;;;;;;5.90;2.17;;;;;;;8.83;79.12;99759.24;1684824;85;25981;-60
2023/10/15 06:40:15;;;;;;;11.12;2.12;;;;;;;8.96;78.36;99763.75;1684900;85;25578;-60
2023/10/15 06:42:46;;;;;;;6.87;2.17;;;;;;;9.14;78.15;99754.37;1684861;85;26147;-59
2023/10/15 06:45:19;;;;;;;7.17;2.25;;;;;;;9.29;77.61;99761.25;1684840;85;25564;-59
2023/10/15 06:47:47;;;;;;;10.13;2.50;;;;;;;9.48;77.66;99759.63;1684738;85;27856;-60
2023/10/15 06:50:14;;;;;;;7.75;1.95;;;;;;;9.72;77.14;99766.76;1684924;85;25717;-60
2023/10/15 06:52:43;;;;;;;6.95;1.80;;;;;;;9.87;76.17;99773.58;1684892;85;25651;-60
2023/10/15 06:55:19;;;;;;;8.75;2.55;;;;;;;10.03;76.09;99777.20;1684851;85;25507;-61
2023/10/15 06:57:44;;;;;;;12.43;2.37;;;;;;;10.26;75.98;99780.52;1684431;85;25416;-61
2023/10/15 07:00:21;;;;;;;4.30;2.17;;;;;;;10.45;75.13;99781.02;1684876;85;27869;-61
2023/10/15 07:02:42;;;;;;;8.20;2.00;;;;;;;10.58;74.20;99779.23;1682931;85;25683;-62
2023/10/15 07:05:09;;;;;;;8.45;1.90;;;;;;;10.80;74.51;99790.97;1684860;85;25543;-62
2023/10/15 07:07:36;;;;;;;4.90;1.87;;;;;;;11.03;73.30;99783.39;1684048;85;25652;-61
2023/10/15 07:10:06;;;;;;;4.60;1.50;;;;;;;11.21;73.70;99793.04;1680960;85;25629;-61
2023/10/15 07:12:34;;;;;;;7.28;1.82;;;;;;;11.56;73.72;99794.23;1678004;85;29755;-62
2023/10/15 07:15:05;;;;;;;7.05;1.82;;;;;;;11.90;72.23;99794.33;1677922;85;25553;-61
2023/10/15 07:17:30;;;;;;;5.85;2.00;;;;;;;12.28;71.63;99792.88;1677878;85;25608;-62
2023/10/15 07:19:57;;;;;;;13.22;2.47;;;;;;;12.62;70.95;99796.97;1677944;85;25620;-62
2023/10/15 07:22:27;;;;;;;7.53;1.72;;;;;;;12.93;68.17;99786.18;1678006;85;25497;-62
2023/10/15 07:24:54;;;;;;;8.90;1.90;;;;;;;13.15;68.30;99784.97;1677982;85;27564;-62
2023/10/15 07:27:21;;;;;;;6.28;1.75;;;;;;;13.43;67.51;99790.53;1638557;86;25817;-62
2023/10/15 07:29:48;;;;;;;7.95;2.42;;;;;;;13.73;66.40;99787.58;1638066;86;25482;-62
2023/10/15 07:32:15;;;;;;;11.10;3.70;;;;;;;13.86;65.10;99784.25;1637962;87;25666;-62
2023/10/15 07:34:41;;;;;;;8.48;2.35;;;;;;;14.11;65.82;99785.77;1638022;87;25627;-61
2023/10/15 07:37:09;;;;;;;6.37;2.25;;;;;;;14.25;64.39;99789.48;1638139;86;28019;-61
2023/10/15 07:39:37;;;;;;;6.40;2.35;;;;;;;14.45;64.38;99801.28;1638196;87;25406;-62
2023/10/15 07:42:06;;;;;;;6.58;2.00;;;;;;;14.66;63.15;99804.39;1638181;86;25430;-63
2023/10/15 07:44:32;;;;;;;10.70;2.35;;;;;;;14.57;62.17;99793.08;1638012;87;25579;-62
2023/10/15 07:46:58;;;;;;;7.70;2.45;;;;;;;14.46;61.48;99798.02;1638183;87;25633;-63
2023/10/15 07:49:25;;;;;;;11.68;2.67;;;;;;;14.47;61.39;99796.86;1638167;86;27412;-63
2023/10/15 07:51:52;;;;;;;7.75;3.22;;;;;;;14.32;61.29;99798.39;1638081;86;25627;-63
2023/10/15 07:54:20;;;;;;;9.48;4.08;;;;;;;14.39;61.10;99799.97;1638172;87;25566;-66
2023/10/15 07:56:46;;;;;;;9.20;2.95;;;;;;;14.31;60.46;99795.45;1638121;87;25511;-66
2023/10/15 07:59:13;;;;;;;5.22;2.17;;;;;;;14.21;60.29;99795.37;1638173;87;25591;-64
2023/10/15 08:01:41;;;;;;;8.08;2.50;;;;;;;14.15;59.21;99778.52;1638141;86;28413;-65
2023/10/15 08:04:09;;;;;;;9.93;2.20;;;;;;;14.09;58.11;99783.97;1638021;87;25771;-65
2023/10/15 08:06:36;;;;;;;8.73;2.40;;;;;;;13.62;57.45;99798.09;1638259;86;25484;-64
2023/10/15 08:09:03;;;;;;;10.63;2.40;;;;;;;13.13;57.61;99808.38;1636985;86;25432;-63
2023/10/15 08:11:31;;;;;;;6.15;2.05;;;;;;;12.81;58.25;99813.52;1629593;88;25649;-65
2023/10/15 08:13:59;;;;;;;6.95;2.08;;;;;;;12.66;59.63;99810.08;1634419;86;27872;-65
2023/10/15 08:16:26;;;;;;;10.45;2.42;;;;;;;12.55;59.74;99830.06;1634359;87;25662;-65
2023/10/15 08:18:53;;;;;;;12.50;2.58;;;;;;;12.36;59.47;99824.31;1630469;87;25641;-65
2023/10/15 08:21:22;;;;;;;8.70;2.30;;;;;;;12.37;60.34;99805.57;1631864;86;25590;-65
2023/10/15 08:23:50;;;;;;;6.90;3.35;;;;;;;12.43;60.02;99824.02;1630448;87;25622;-65
2023/10/15 08:26:16;;;;;;;6.97;2.40;;;;;;;12.58;60.84;99819.09;1631470;87;27477;-65
2023/10/15 08:28:44;;;;;;;9.50;3.47;;;;;;;12.59;59.59;99832.33;1633479;87;25812;-64
2023/10/15 08:31:12;;;;;;;6.92;2.60;;;;;;;12.40;59.88;99828.75;1632599;87;25629;-64
2023/10/15 08:33:39;;;;;;;10.35;2.33;;;;;;;12.36;60.38;99824.31;1632359;86;25486;-64
2023/10/15 08:36:07;;;;;;;6.62;1.77;;;;;;;12.33;60.35;99828.49;1633600;86;25437;-65
2023/10/15 08:38:35;;;;;;;11.65;2.12;;;;;;;12.17;59.57;99835.63;1633331;87;27533;-64
2023/10/15 08:41:10;;;;;;;8.15;2.08;;;;;;;12.01;58.94;99838.93;1634481;87;26180;-65
2023/10/15 08:43:40;;;;;;;7.40;2.17;;;;;;;11.81;58.73;99845.88;1634452;86;25479;-64
2023/10/15 08:46:09;;;;;;;8.70;2.30;;;;;;;11.52;58.66;99833.13;1632082;87;25592;-64
2023/10/15 08:48:39;;;;;;;8.45;2.62;;;;;;;11.31;59.17;99830.36;1632203;87;25655;-64
2023/10/15 08:51:09;;;;;;;7.95;2.17;;;;;;;11.16;59.36;99837.10;1634435;86;27831;-65
2023/10/15 08:53:36;;;;;;;;;;;;;;;10.98;59.69;99836.34;1636765;87;25485;-64
2023/10/15 08:56:06;;;;;;;6.78;2.22;;;;;;;10.90;59.97;99839.89;1671456;85;25384;-64
2023/10/15 08:58:34;;;;;;;5.83;2.22;;;;;;;10.82;60.37;99835.50;1673655;85;26159;-64
2023/10/15 09:01:03;;;;;;;12.58;2.80;;;;;;;10.74;60.51;99837.66;1673699;85;25550;-64
2023/10/15 09:03:30;;;;;;;8.15;2.58;;;;;;;10.68;60.71;99827.36;1673560;85;28513;-63
2023/10/15 09:06:01;;;;;;;8.48;2.00;;;;;;;10.57;60.63;99835.80;1673550;85;25957;-64
2023/10/15 09:08:28;;;;;;;4.83;1.60;;;;;;;10.56;60.78;99828.80;1673166;85;25627;-66
2023/10/15 09:10:55;;;;;;;6.83;1.70;;;;;;;10.56;61.21;99830.14;1637743;86;25586;-64
2023/10/15 09:13:22;;;;;;;4.37;1.65;;;;;;;10.60;61.19;99835.70;1641944;86;25627;-64
2023/10/15 09:15:52;;;;;;;3.25;1.40;;;;;;;10.63;60.92;99832.37;1624911;87;28492;-62
2023/10/15 09:18:20;;;;;;;7.33;1.75;;;;;;;10.64;61.23;99832.05;1624949;87;25684;-62
2023/10/15 09:20:53;;;;;;;6.95;1.80;;;;;;;10.68;61.17;99838.96;1624878;87;25474;-63
2023/10/15 09:23:22;;;;;;;5.10;1.70;;;;;;;10.75;61.36;99847.95;1624868;88;26439;-62
2023/10/15 09:25:59;;;;;;;5.72;1.70;;;;;;;10.75;60.79;99842.53;1624901;88;25567;-64
2023/10/15 09:28:30;;;;;;;7.10;1.70;;;;;;;10.70;60.27;99853.52;1624071;87;27562;-64
2023/10/15 09:31:11;;;;;;;7.62;2.00;;;;;;;10.58;59.60;99842.00;1624841;87;26132;-65
2023/10/15 09:33:40;;;;;;;9.38;1.90;;;;;;;10.48;59.90;99843.11;1624923;88;25548;-64
2023/10/15 09:36:09;;;;;;;4.03;1.60;;;;;;;10.41;60.25;99840.88;1624940;87;25671;-64
2023/10/15 09:38:37;;;;;;;8.95;1.42;;;;;;;10.37;60.07;99839.13;1624884;88;25472;-63
2023/10/15 09:41:05;;;;;;;3.60;1.70;;;;;;;10.32;60.18;99854.97;1624868;87;27484;-63
2023/10/15 09:43:35;;;;;;;5.25;1.42;;;;;;;10.26;59.72;99844.03;1624911;88;25835;-63
2023/10/15 09:46:05;;;;;;;5.17;1.25;;;;;;;10.18;59.84;99838.88;1624581;87;25492;-64
2023/10/15 09:48:34;;;;;;;6.67;1.60;;;;;;;10.15;59.58;99848.97;1624882;87;25529;-64
2023/10/15 09:51:02;;;;;;;6.37;2.42;;;;;;;10.08;59.56;99853.48;1624889;88;25521;-62
2023/10/15 09:53:34;;;;;;;5.30;1.50;;;;;;;10.03;59.83;99846.88;1625124;88;28161;-64
2023/10/15 09:56:12;;;;;;;3.50;1.37;;;;;;;9.99;60.18;99845.12;1624012;87;26127;-63
2023/10/15 09:58:38;;;;;;;4.78;1.75;;;;;;;9.96;60.38;99843.86;1624671;87;25638;-64
2023/10/15 10:01:27;;;;;;;5.30;1.72;;;;;;;9.98;60.46;99844.33;1624805;88;25687;-63
2023/10/15 10:04:04;;;;;;;6.95;1.72;;;;;;;9.97;60.46;99833.27;1622017;87;25663;-63
2023/10/15 10:07:12;;;;;;;4.85;1.40;;;;;;;9.91;60.20;99835.91;1624953;87;27405;-65
2023/10/15 10:10:27;;;;;;;4.83;1.65;;;;;;;9.88;60.57;99840.58;1625257;87;25676;-65
2023/10/15 10:13:16;;;;;;;4.37;1.55;;;;;;;9.87;60.71;99840.33;1586816;89;25651;-64
2023/10/15 10:15:57;;;;;;;17.52;2.33;;;;;;;9.83;60.76;99844.78;1561194;91;25860;-64
2023/10/15 10:18:27;;;;;;;7.15;1.55;;;;;;;9.79;61.00;99843.27;1587076;90;25675;-64
2023/10/15 10:20:55;;;;;;;5.45;2.02;;;;;;;9.78;60.80;99843.58;1586932;90;27513;-64
2023/10/15 10:23:23;;;;;;;6.45;1.60;;;;;;;9.78;61.51;99843.02;1577442;91;25898;-64
2023/10/15 10:25:51;;;;;;;8.10;1.80;;;;;;;9.83;61.37;99846.13;1571238;91;25537;-65
2023/10/15 10:28:21;;;;;;;5.53;2.30;;;;;;;9.85;61.60;99838.50;1550688;91;25732;-65
2023/10/15 10:30:55;;;;;;;7.75;1.55;;;;;;;9.87;61.62;99833.58;1571347;91;25705;-63
2023/10/15 10:33:50;;;;;;;5.00;1.60;;;;;;;9.86;61.29;99834.70;1560859;91;28046;-62
2023/10/15 10:36:22;;;;;;;4.50;1.75;;;;;;;9.88;61.93;99834.61;1586643;90;26283;-64
2023/10/15 10:39:07;;;;;;;4.78;1.87;;;;;;;9.91;61.71;99838.05;1586656;90;25531;-63
2023/10/15 10:41:42;;;;;;;3.67;1.72;;;;;;;9.93;62.11;99836.38;1575935;91;25719;-63
2023/10/15 10:44:27;;;;;;;6.15;1.85;;;;;;;9.99;61.97;99841.06;1560842;91;25537;-63
2023/10/15 10:46:56;;;;;;;4.85;1.95;;;;;;;9.97;61.39;99841.94;1553222;92;27746;-63
2023/10/15 10:49:35;;;;;;;3.05;1.57;;;;;;;9.96;61.95;99838.45;1562258;91;25741;-63
2023/10/15 10:52:15;;;;;;;5.47;1.72;;;;;;;9.96;61.77;99834.94;1584141;90;25554;-64
2023/10/15 10:54:45;;;;;;;5.25;1.85;;;;;;;9.94;61.61;99833.90;1584053;90;25827;-63
2023/10/15 10:57:18;;;;;;;4.85;2.67;;;;;;;9.93;61.77;99833.67;1584212;90;25550;-67
2023/10/15 10:59:45;;;;;;;9.33;4.30;;;;;;;9.92;62.01;99830.72;1584144;90;27441;-67
2023/10/15 11:02:13;;;;;;;8.38;5.45;;;;;;;9.96;62.34;99826.83;1583781;90;26376;-67
2023/10/15 11:04:43;;;;;;;8.85;2.33;;;;;;;9.96;62.13;99832.23;1583652;90;25699;-57
2023/10/15 11:07:13;;;;;;;8.38;1.90;;;;;;;9.96;62.20;99822.78;1584072;90;26319;-57
2023/10/15 11:09:40;;;;;;;5.95;2.15;;;;;;;9.94;62.30;99822.30;1584129;90;25729;-55
2023/10/15 11:12:14;;;;;;;11.43;2.30;;;;;;;9.93;62.49;99826.11;1597030;89;27884;-60
2023/10/15 11:14:39;;;;;;;9.50;2.90;;;;;;;9.97;62.84;99820.33;1596327;89;25592;-60
2023/10/15 11:17:12;;;;;;;;;;;;;;;10.04;63.04;99816.03;1599515;89;25470;-60
2023/10/15 11:19:37;;;;;;;5.70;2.00;;;;;;;10.12;63.02;99820.43;1596349;89;25722;-60
2023/10/15 11:22:04;;;;;;;5.72;2.12;;;;;;;10.15;62.65;99822.47;1597089;89;25481;-60
2023/10/15 11:24:32;;;;;;;9.60;2.27;;;;;;;10.13;62.07;99810.66;1630320;87;27971;-61
2023/10/15 11:27:00;;;;;;;7.30;2.08;;;;;;;10.10;62.17;99821.53;1645950;87;25472;-60
2023/10/15 11:29:29;;;;;;;;;;;;;;;10.09;62.09;99815.88;1643637;87;25466;-60
2023/10/15 11:31:58;;;;;;;7.58;2.45;;;;;;;10.07;62.26;99815.97;1633569;87;25546;-60
2023/10/15 11:34:31;;;;;;;8.58;2.60;;;;;;;10.01;61.92;99811.81;1633625;87;25638;-60
2023/10/15 11:36:57;;;;;;;9.83;2.65;;;;;;;9.95;62.35;99817.16;1628758;87;27001;-60
2023/10/15 11:39:37;;;;;;;5.83;2.50;;;;;;;9.90;62.57;99828.34;1624570;88;25461;-61
2023/10/15 11:41:58;;;;;;;8.30;2.50;;;;;;;9.91;62.92;99822.40;1623623;88;25491;-60
2023/10/15 11:44:30;;;;;;;5.83;2.50;;;;;;;9.92;62.95;99825.32;1624499;88;25880;-60
2023/10/15 11:47:00;;;;;;;8.35;2.15;;;;;;;9.95;63.37;99825.26;1624343;88;25649;-61
2023/10/15 11:49:30;;;;;;;6.80;2.47;;;;;;;10.03;63.74;99819.08;1624706;88;27312;-61
2023/10/15 11:51:57;;;;;;;8.83;2.30;;;;;;;10.10;63.35;99817.48;1624621;88;25586;-61
2023/10/15 11:54:31;;;;;;;7.05;2.10;;;;;;;10.14;62.84;99825.74;1624610;88;25609;-62
2023/10/15 11:57:04;;;;;;;8.05;2.42;;;;;;;10.15;62.79;99822.47;1624534;88;25408;-63
2023/10/15 11:59:29;;;;;;;5.85;2.47;;;;;;;10.19;62.98;99819.39;1624314;88;25566;-62
2023/10/15 12:02:00;;;;;;;6.22;2.40;;;;;;;10.23;62.51;99818.45;1624562;88;27995;-60